F/V Carmalia — FMFK — position and weather

sailwx.info

Track history (hours):
 
Tides and Currents Weather Stations Pressure Air Temp Water Temp Dewpoint Dewpoint Depression Visibility Wind Speed Wind Dir Waves Ship Positions

F/V Carmalia

Last reported at 2018-Feb-20 14:18 UTC. Time now 2018-Feb-23 00:55 UTC.
Position N 49°38' W 001°37'.

Length 17 m.

Type: Fishing. MMSI: 228222900.

Date/timePositionNaut miles runAvg speedWind from/ knotsBaromVisibWave heightAir tempDewpointWater temp
2018-Feb-20 14:18N 49°38' W 001°37'0 0.3
2018-Feb-20 14:00N 49°38' W 001°37'0 0.0
2018-Feb-20 13:30N 49°38' W 001°37'0 0.0
2018-Feb-20 13:00N 49°38' W 001°37'0 0.0
2018-Feb-20 12:30N 49°38' W 001°37'0 0.0
2018-Feb-20 12:01N 49°38' W 001°37'0 0.5
2018-Feb-20 11:30N 49°38' W 001°37'1 2.7
2018-Feb-20 11:01N 49°40' W 001°38'5 9.0
2018-Feb-20 10:30N 49°42' W 001°43'3 5.7
2018-Feb-20 10:00N 49°44' W 001°47'4 7.2
2018-Feb-20 09:30N 49°45' W 001°52'  
2018-Feb-16 15:53N 49°55' W 001°57'1 3.5
2018-Feb-16 15:30N 49°54' W 001°56'2 3.6
2018-Feb-16 15:00N 49°53' W 001°54'2 3.4
2018-Feb-16 14:30N 49°52' W 001°52'2 3.3
2018-Feb-16 14:00N 49°50' W 001°51'2 3.7
2018-Feb-16 13:31N 49°49' W 001°49'2 4.5
2018-Feb-16 13:00N 49°48' W 001°46'3 5.3
2018-Feb-16 12:30N 49°46' W 001°43'3 6.4
2018-Feb-16 12:00N 49°43' W 001°40'3 6.5
2018-Feb-16 11:30N 49°41' W 001°36'3 5.0
2018-Feb-16 11:00N 49°39' W 001°37'0 0.0
2018-Feb-16 10:30N 49°39' W 001°37'0 0.0
2018-Feb-16 10:00N 49°39' W 001°37'0 0.2
2018-Feb-16 09:30N 49°38' W 001°37'0 0.0
2018-Feb-16 09:00N 49°38' W 001°37'0 0.0
2018-Feb-16 08:31N 49°38' W 001°37'0 0.0
2018-Feb-16 08:00N 49°38' W 001°37'0 0.3
2018-Feb-16 07:30N 49°39' W 001°37'5 9.3
2018-Feb-16 07:00N 49°42' W 001°42'612.7
2018-Feb-16 06:30N 49°45' W 001°51'  
2018-Feb-13 21:00N 49°45' W 001°54'5 9.8
2018-Feb-13 20:30N 49°43' W 001°47'4 8.6
2018-Feb-13 20:00N 49°41' W 001°41'4 7.0
2018-Feb-13 19:30N 49°39' W 001°37'0 0.0
2018-Feb-13 19:00N 49°39' W 001°37'0 0.2
2018-Feb-13 18:30N 49°38' W 001°37'0 0.0
2018-Feb-13 18:00N 49°38' W 001°37'0 0.0
2018-Feb-13 17:30N 49°38' W 001°37'0 0.0
2018-Feb-13 17:00N 49°38' W 001°37'0 0.0
2018-Feb-13 16:30N 49°38' W 001°37'0 0.0
2018-Feb-13 16:00N 49°38' W 001°37'0 0.0
2018-Feb-13 15:29N 49°38' W 001°37'0 0.0
2018-Feb-13 15:00N 49°38' W 001°37'0 0.0
2018-Feb-13 14:30N 49°38' W 001°37'0 0.0
2018-Feb-13 13:58N 49°38' W 001°37'0 0.0
2018-Feb-13 13:30N 49°38' W 001°37'0 0.0
2018-Feb-13 12:59N 49°38' W 001°37'0 0.0
2018-Feb-13 12:31N 49°38' W 001°37'0 0.0
2018-Feb-13 11:59N 49°38' W 001°37'2 3.1
2018-Feb-13 11:30N 49°40' W 001°38'1 2.7
2018-Feb-13 11:00N 49°40' W 001°40'1 1.7
2018-Feb-13 10:30N 49°41' W 001°41'1 1.6
2018-Feb-13 10:00N 49°41' W 001°42'1 1.4
2018-Feb-13 09:30N 49°42' W 001°43'1 1.7
2018-Feb-13 09:00N 49°42' W 001°44'2 3.4
2018-Feb-13 08:30N 49°44' W 001°44'2 4.4
2018-Feb-13 08:00N 49°46' W 001°44'2 4.9
2018-Feb-13 07:30N 49°48' W 001°47'3 5.1
2018-Feb-13 07:00N 49°49' W 001°50'3 5.1
2018-Feb-13 06:30N 49°50' W 001°53'3 5.6
2018-Feb-13 06:00N 49°51' W 001°58'3 6.1
2018-Feb-13 05:30N 49°52' W 002°02'8 0.2
2018-Feb-11 13:13N 49°45' W 001°54'2 7.7
2018-Feb-11 13:00N 49°44' W 001°52'4 8.1
2018-Feb-11 12:30N 49°43' W 001°47'4 7.8
2018-Feb-11 12:00N 49°41' W 001°41'3 6.6
2018-Feb-11 11:30N 49°39' W 001°37'1 1.0
2018-Feb-11 11:00N 49°38' W 001°37'0 0.0
2018-Feb-11 10:30N 49°38' W 001°37'0 0.0
2018-Feb-11 10:00N 49°38' W 001°37'0 0.0
2018-Feb-11 09:30N 49°38' W 001°37'0 0.0
2018-Feb-11 09:00N 49°38' W 001°37'0 0.0
2018-Feb-11 08:30N 49°38' W 001°37'0 0.0
2018-Feb-11 08:00N 49°38' W 001°37'0 0.0
2018-Feb-11 07:30N 49°38' W 001°37'0 0.0
2018-Feb-11 07:01N 49°38' W 001°37'0 0.0
2018-Feb-11 06:30N 49°38' W 001°37'0 0.0
2018-Feb-11 06:00N 49°38' W 001°37'0 0.0
2018-Feb-11 05:30N 49°38' W 001°37'0 0.0
2018-Feb-11 05:00N 49°38' W 001°37'0 0.0
2018-Feb-11 04:30N 49°38' W 001°37'0 0.0
2018-Feb-11 03:59N 49°38' W 001°37'0 0.0
2018-Feb-11 03:28N 49°38' W 001°37'1 3.0
2018-Feb-11 03:00N 49°40' W 001°36'4 7.9
2018-Feb-11 02:30N 49°44' W 001°37'3 6.8
2018-Feb-11 02:01N 49°47' W 001°37'1 1.4
2018-Feb-11 01:30N 49°47' W 001°38'1 2.4
2018-Feb-11 01:00N 49°47' W 001°36'2 3.3
2018-Feb-11 00:30N 49°47' W 001°34'2 3.6
2018-Feb-11 00:00N 49°47' W 001°31'2 4.0
2018-Feb-10 23:30N 49°48' W 001°28'0 0.7
2018-Feb-10 23:00N 49°48' W 001°29'1 1.7
2018-Feb-10 22:30N 49°48' W 001°30'1 1.9
2018-Feb-10 22:01N 49°48' W 001°31'1 2.0
2018-Feb-10 21:30N 49°48' W 001°33'1 2.2
2018-Feb-10 21:00N 49°47' W 001°35'1 2.2
2018-Feb-10 20:30N 49°47' W 001°36'1 2.5
2018-Feb-10 20:00N 49°47' W 001°38'1 2.9
2018-Feb-10 19:30N 49°47' W 001°40'2 3.6
2018-Feb-10 19:00N 49°47' W 001°43'2 4.0
2018-Feb-10 18:30N 49°48' W 001°46'2 4.3
2018-Feb-10 18:00N 49°49' W 001°49'2 4.8
2018-Feb-10 17:30N 49°49' W 001°53'2 3.7
2018-Feb-10 17:00N 49°50' W 001°50'2 4.1
2018-Feb-10 16:30N 49°49' W 001°53'3 5.4
2018-Feb-10 16:00N 49°49' W 001°57'2 4.7
2018-Feb-10 15:30N 49°49' W 002°01'  
Track history (hours):
 
Tides and Currents Weather Stations Pressure Air Temp Water Temp Dewpoint Dewpoint Depression Visibility Wind Speed Wind Dir Waves Ship Positions

F/V Carmalia

Last reported at 2018-Feb-20 14:18 UTC. Time now 2018-Feb-23 00:55 UTC.
Position N 49°38' W 001°37'.

Length 17 m.

Type: Fishing. MMSI: 228222900.

Date/timePositionNaut miles runAvg speedWind from/ knotsBaromVisibWave heightAir tempDewpointWater temp
2018-Feb-20 14:18N 49°38' W 001°37'0 0.3
2018-Feb-20 14:00N 49°38' W 001°37'0 0.0
2018-Feb-20 13:30N 49°38' W 001°37'0 0.0
2018-Feb-20 13:00N 49°38' W 001°37'0 0.0
2018-Feb-20 12:30N 49°38' W 001°37'0 0.0
2018-Feb-20 12:01N 49°38' W 001°37'0 0.5
2018-Feb-20 11:30N 49°38' W 001°37'1 2.7
2018-Feb-20 11:01N 49°40' W 001°38'5 9.0
2018-Feb-20 10:30N 49°42' W 001°43'3 5.7
2018-Feb-20 10:00N 49°44' W 001°47'4 7.2
2018-Feb-20 09:30N 49°45' W 001°52'  
2018-Feb-16 15:53N 49°55' W 001°57'1 3.5
2018-Feb-16 15:30N 49°54' W 001°56'2 3.6
2018-Feb-16 15:00N 49°53' W 001°54'2 3.4
2018-Feb-16 14:30N 49°52' W 001°52'2 3.3
2018-Feb-16 14:00N 49°50' W 001°51'2 3.7
2018-Feb-16 13:31N 49°49' W 001°49'2 4.5
2018-Feb-16 13:00N 49°48' W 001°46'3 5.3
2018-Feb-16 12:30N 49°46' W 001°43'3 6.4
2018-Feb-16 12:00N 49°43' W 001°40'3 6.5
2018-Feb-16 11:30N 49°41' W 001°36'3 5.0
2018-Feb-16 11:00N 49°39' W 001°37'0 0.0
2018-Feb-16 10:30N 49°39' W 001°37'0 0.0
2018-Feb-16 10:00N 49°39' W 001°37'0 0.2
2018-Feb-16 09:30N 49°38' W 001°37'0 0.0
2018-Feb-16 09:00N 49°38' W 001°37'0 0.0
2018-Feb-16 08:31N 49°38' W 001°37'0 0.0
2018-Feb-16 08:00N 49°38' W 001°37'0 0.3
2018-Feb-16 07:30N 49°39' W 001°37'5 9.3
2018-Feb-16 07:00N 49°42' W 001°42'612.7
2018-Feb-16 06:30N 49°45' W 001°51'  
2018-Feb-13 21:00N 49°45' W 001°54'5 9.8
2018-Feb-13 20:30N 49°43' W 001°47'4 8.6
2018-Feb-13 20:00N 49°41' W 001°41'4 7.0
2018-Feb-13 19:30N 49°39' W 001°37'0 0.0
2018-Feb-13 19:00N 49°39' W 001°37'0 0.2
2018-Feb-13 18:30N 49°38' W 001°37'0 0.0
2018-Feb-13 18:00N 49°38' W 001°37'0 0.0
2018-Feb-13 17:30N 49°38' W 001°37'0 0.0
2018-Feb-13 17:00N 49°38' W 001°37'0 0.0
2018-Feb-13 16:30N 49°38' W 001°37'0 0.0
2018-Feb-13 16:00N 49°38' W 001°37'0 0.0
2018-Feb-13 15:29N 49°38' W 001°37'0 0.0
2018-Feb-13 15:00N 49°38' W 001°37'0 0.0
2018-Feb-13 14:30N 49°38' W 001°37'0 0.0
2018-Feb-13 13:58N 49°38' W 001°37'0 0.0
2018-Feb-13 13:30N 49°38' W 001°37'0 0.0
2018-Feb-13 12:59N 49°38' W 001°37'0 0.0
2018-Feb-13 12:31N 49°38' W 001°37'0 0.0
2018-Feb-13 11:59N 49°38' W 001°37'2 3.1
2018-Feb-13 11:30N 49°40' W 001°38'1 2.7
2018-Feb-13 11:00N 49°40' W 001°40'1 1.7
2018-Feb-13 10:30N 49°41' W 001°41'1 1.6
2018-Feb-13 10:00N 49°41' W 001°42'1 1.4
2018-Feb-13 09:30N 49°42' W 001°43'1 1.7
2018-Feb-13 09:00N 49°42' W 001°44'2 3.4
2018-Feb-13 08:30N 49°44' W 001°44'2 4.4
2018-Feb-13 08:00N 49°46' W 001°44'2 4.9
2018-Feb-13 07:30N 49°48' W 001°47'3 5.1
2018-Feb-13 07:00N 49°49' W 001°50'3 5.1
2018-Feb-13 06:30N 49°50' W 001°53'3 5.6
2018-Feb-13 06:00N 49°51' W 001°58'3 6.1
2018-Feb-13 05:30N 49°52' W 002°02'8 0.2
2018-Feb-11 13:13N 49°45' W 001°54'2 7.7
2018-Feb-11 13:00N 49°44' W 001°52'4 8.1
2018-Feb-11 12:30N 49°43' W 001°47'4 7.8
2018-Feb-11 12:00N 49°41' W 001°41'3 6.6
2018-Feb-11 11:30N 49°39' W 001°37'1 1.0
2018-Feb-11 11:00N 49°38' W 001°37'0 0.0
2018-Feb-11 10:30N 49°38' W 001°37'0 0.0
2018-Feb-11 10:00N 49°38' W 001°37'0 0.0
2018-Feb-11 09:30N 49°38' W 001°37'0 0.0
2018-Feb-11 09:00N 49°38' W 001°37'0 0.0
2018-Feb-11 08:30N 49°38' W 001°37'0 0.0
2018-Feb-11 08:00N 49°38' W 001°37'0 0.0
2018-Feb-11 07:30N 49°38' W 001°37'0 0.0
2018-Feb-11 07:01N 49°38' W 001°37'0 0.0
2018-Feb-11 06:30N 49°38' W 001°37'0 0.0
2018-Feb-11 06:00N 49°38' W 001°37'0 0.0
2018-Feb-11 05:30N 49°38' W 001°37'0 0.0
2018-Feb-11 05:00N 49°38' W 001°37'0 0.0
2018-Feb-11 04:30N 49°38' W 001°37'0 0.0
2018-Feb-11 03:59N 49°38' W 001°37'0 0.0
2018-Feb-11 03:28N 49°38' W 001°37'1 3.0
2018-Feb-11 03:00N 49°40' W 001°36'4 7.9
2018-Feb-11 02:30N 49°44' W 001°37'3 6.8
2018-Feb-11 02:01N 49°47' W 001°37'1 1.4
2018-Feb-11 01:30N 49°47' W 001°38'1 2.4
2018-Feb-11 01:00N 49°47' W 001°36'2 3.3
2018-Feb-11 00:30N 49°47' W 001°34'2 3.6
2018-Feb-11 00:00N 49°47' W 001°31'2 4.0
2018-Feb-10 23:30N 49°48' W 001°28'0 0.7
2018-Feb-10 23:00N 49°48' W 001°29'1 1.7
2018-Feb-10 22:30N 49°48' W 001°30'1 1.9
2018-Feb-10 22:01N 49°48' W 001°31'1 2.0
2018-Feb-10 21:30N 49°48' W 001°33'1 2.2
2018-Feb-10 21:00N 49°47' W 001°35'1 2.2
2018-Feb-10 20:30N 49°47' W 001°36'1 2.5
2018-Feb-10 20:00N 49°47' W 001°38'1 2.9
2018-Feb-10 19:30N 49°47' W 001°40'2 3.6
2018-Feb-10 19:00N 49°47' W 001°43'2 4.0
2018-Feb-10 18:30N 49°48' W 001°46'2 4.3
2018-Feb-10 18:00N 49°49' W 001°49'2 4.8
2018-Feb-10 17:30N 49°49' W 001°53'2 3.7
2018-Feb-10 17:00N 49°50' W 001°50'2 4.1
2018-Feb-10 16:30N 49°49' W 001°53'3 5.4
2018-Feb-10 16:00N 49°49' W 001°57'2 4.7
2018-Feb-10 15:30N 49°49' W 002°01'  

Dump ship's entire track history